METAR AND TAF INFORMATION
METAR FOR LTAJ
ADDS - METARS form results

(1007 UTC 24 September 2018)
Data provider http://aviationweather.gov/metar/data/
 
METAR text: LTAJ 240950Z 11005KT 060V210 CAVOK 31/01 Q1016 NOSIG RMK RWY10 VRB04KT
Conditions at: LTAJ (GAZIANTEP , TR) observed 0950 UTC 24 September 2018
Temperature: 31.0°C (88°F)
Dewpoint: 1.0°C (34°F) [RH = 15%]
Pressure (altimeter): 30.00 inches Hg (1016.0 mb)
Winds: from the ESE (110 degrees) at 6 MPH (5 knots; 2.6 m/s)
Visibility: 6 or more miles (10+ km)
Ceiling: ceiling and visibility are OK
Clouds: unknown
Weather: no significant weather observed at this time

METAR text: LTAJ 240920Z 10005KT 060V150 CAVOK 31/01 Q1017 NOSIG RMK RWY10 VRB04KT
Conditions at: LTAJ (GAZIANTEP , TR) observed 0920 UTC 24 September 2018
Temperature: 31.0°C (88°F)
Dewpoint: 1.0°C (34°F) [RH = 15%]
Pressure (altimeter): 30.03 inches Hg (1017.0 mb)
Winds: from the E (100 degrees) at 6 MPH (5 knots; 2.6 m/s)
Visibility: 6 or more miles (10+ km)
Ceiling: ceiling and visibility are OK
Clouds: unknown
Weather: no significant weather observed at this time

Forecast for: LTAJ (GAZIANTEP , TR)
Text: TAF LTAJ 240440Z 2406/2506 VRB02KT CAVOK
Forecast period: 0600 UTC 24 September 2018 to 0600 UTC 25 September 2018
Forecast type: FROM: standard forecast or significant change
Winds: variable direction winds at 2 MPH (2 knots; 1.0 m/s)
Visibility: 6 or more miles 10+ km)
Ceiling: unknown
Clouds: missing
Weather: NSW  (no significant weather)

 AIRPORT MAP

 RUNWAY INFORMATION
Runway 10L Runway length 9843 ft Runway width 157 ft
Runway elevation 2315 ft Runway displaced threshold 427 ft Runway heading 105
Runway 28R Runway length 9843 ft Runway width 157 ft
Runway elevation 2190 ft Runway displaced threshold 0 ft Runway heading 285
Runway 10R Runway length 9842 ft Runway width 100 ft
Runway elevation 2309 ft Runway displaced threshold 328 ft Runway heading 105
Runway 28L Runway length 9842 ft Runway width 100 ft
Runway elevation 2215 ft Runway displaced threshold 0 ft Runway heading 285

 AIRPORT FREQUENCIES
Type APP Name APP Frequency 120.1 MHZ
Type ATIS Name Frequency 119.275 MHZ
Type TWR Name TWR Frequency 120.1 MHZ

 AIRPORT NEAR NAVIGATION AIDS
Type VOR-DME Name Gaziantep Frequency 116700 KHZ
Type NDB Name Oguzeli Frequency 432 KHZ



Copyright © 2011 - 2018 BirgenAir Virtual Airlines. All rights reserved. Developed by Goktug Unver